sensor_id;sensor_type;location;lat;lon;timestamp;P1;durP1;ratioP1;P2;durP2;ratioP2
66272;SDS011;58450;52.150;4.466;2023-06-19T00:02:17;9.52;;;6.18;;
66272;SDS011;58450;52.150;4.466;2023-06-19T00:04:45;8.30;;;5.60;;
66272;SDS011;58450;52.150;4.466;2023-06-19T00:07:12;8.20;;;5.55;;
66272;SDS011;58450;52.150;4.466;2023-06-19T00:09:40;7.35;;;4.90;;
66272;SDS011;58450;52.150;4.466;2023-06-19T00:12:09;6.28;;;4.10;;
66272;SDS011;58450;52.150;4.466;2023-06-19T00:14:37;6.47;;;2.72;;
66272;SDS011;58450;52.150;4.466;2023-06-19T00:17:05;3.15;;;2.30;;
66272;SDS011;58450;52.150;4.466;2023-06-19T00:19:32;2.58;;;1.73;;
66272;SDS011;58450;52.150;4.466;2023-06-19T00:22:01;1.98;;;1.48;;
66272;SDS011;58450;52.150;4.466;2023-06-19T00:24:29;2.15;;;1.40;;
66272;SDS011;58450;52.150;4.466;2023-06-19T00:26:57;3.00;;;1.38;;
66272;SDS011;58450;52.150;4.466;2023-06-19T00:29:29;4.82;;;1.55;;
66272;SDS011;58450;52.150;4.466;2023-06-19T00:31:57;1.77;;;1.17;;
66272;SDS011;58450;52.150;4.466;2023-06-19T00:34:25;1.95;;;1.38;;
66272;SDS011;58450;52.150;4.466;2023-06-19T00:36:55;2.03;;;1.40;;
66272;SDS011;58450;52.150;4.466;2023-06-19T00:39:24;2.97;;;1.77;;
66272;SDS011;58450;52.150;4.466;2023-06-19T00:41:53;4.30;;;2.00;;
66272;SDS011;58450;52.150;4.466;2023-06-19T00:44:22;2.85;;;1.90;;
66272;SDS011;58450;52.150;4.466;2023-06-19T00:46:51;3.03;;;1.83;;
66272;SDS011;58450;52.150;4.466;2023-06-19T00:49:24;3.58;;;2.22;;
66272;SDS011;58450;52.150;4.466;2023-06-19T00:51:52;3.28;;;1.95;;
66272;SDS011;58450;52.150;4.466;2023-06-19T00:54:20;5.10;;;2.60;;
66272;SDS011;58450;52.150;4.466;2023-06-19T00:56:48;4.90;;;2.80;;
66272;SDS011;58450;52.150;4.466;2023-06-19T00:59:17;9.18;;;3.30;;
66272;SDS011;58450;52.150;4.466;2023-06-19T01:01:46;5.15;;;3.58;;
66272;SDS011;58450;52.150;4.466;2023-06-19T01:04:15;5.53;;;3.50;;
66272;SDS011;58450;52.150;4.466;2023-06-19T01:06:51;4.90;;;3.22;;
66272;SDS011;58450;52.150;4.466;2023-06-19T01:09:27;4.95;;;3.17;;
66272;SDS011;58450;52.150;4.466;2023-06-19T01:12:06;3.92;;;2.90;;
66272;SDS011;58450;52.150;4.466;2023-06-19T01:14:44;6.05;;;3.00;;
66272;SDS011;58450;52.150;4.466;2023-06-19T01:17:20;6.72;;;3.10;;
66272;SDS011;58450;52.150;4.466;2023-06-19T01:19:50;6.05;;;3.30;;
66272;SDS011;58450;52.150;4.466;2023-06-19T01:22:28;4.20;;;2.80;;
66272;SDS011;58450;52.150;4.466;2023-06-19T01:24:57;4.78;;;3.10;;
66272;SDS011;58450;52.150;4.466;2023-06-19T01:27:25;4.07;;;2.95;;
66272;SDS011;58450;52.150;4.466;2023-06-19T01:29:56;5.38;;;3.15;;
66272;SDS011;58450;52.150;4.466;2023-06-19T01:32:25;5.85;;;3.78;;
66272;SDS011;58450;52.150;4.466;2023-06-19T01:35:06;5.50;;;3.55;;
66272;SDS011;58450;52.150;4.466;2023-06-19T01:37:38;6.82;;;3.70;;
66272;SDS011;58450;52.150;4.466;2023-06-19T01:40:08;7.43;;;4.47;;
66272;SDS011;58450;52.150;4.466;2023-06-19T01:42:39;6.15;;;4.30;;
66272;SDS011;58450;52.150;4.466;2023-06-19T01:45:08;5.60;;;4.00;;
66272;SDS011;58450;52.150;4.466;2023-06-19T01:47:36;5.63;;;4.03;;
66272;SDS011;58450;52.150;4.466;2023-06-19T01:50:04;7.28;;;4.53;;
66272;SDS011;58450;52.150;4.466;2023-06-19T01:52:34;6.63;;;5.07;;
66272;SDS011;58450;52.150;4.466;2023-06-19T01:55:03;8.10;;;5.15;;
66272;SDS011;58450;52.150;4.466;2023-06-19T01:57:32;7.38;;;5.45;;
66272;SDS011;58450;52.150;4.466;2023-06-19T02:00:02;6.22;;;4.88;;
66272;SDS011;58450;52.150;4.466;2023-06-19T02:02:31;7.05;;;4.80;;
66272;SDS011;58450;52.150;4.466;2023-06-19T02:04:59;6.75;;;4.97;;
66272;SDS011;58450;52.150;4.466;2023-06-19T02:07:26;8.43;;;6.35;;
66272;SDS011;58450;52.150;4.466;2023-06-19T02:09:54;8.55;;;6.65;;
66272;SDS011;58450;52.150;4.466;2023-06-19T02:12:23;9.23;;;7.53;;
66272;SDS011;58450;52.150;4.466;2023-06-19T02:14:50;10.35;;;8.23;;
66272;SDS011;58450;52.150;4.466;2023-06-19T02:17:18;11.27;;;8.65;;
66272;SDS011;58450;52.150;4.466;2023-06-19T02:19:45;11.90;;;9.48;;
66272;SDS011;58450;52.150;4.466;2023-06-19T02:22:13;13.07;;;10.30;;
66272;SDS011;58450;52.150;4.466;2023-06-19T02:24:40;13.23;;;10.43;;
66272;SDS011;58450;52.150;4.466;2023-06-19T02:27:10;12.73;;;10.43;;
66272;SDS011;58450;52.150;4.466;2023-06-19T02:29:39;14.25;;;10.90;;
66272;SDS011;58450;52.150;4.466;2023-06-19T02:32:06;16.08;;;13.30;;
66272;SDS011;58450;52.150;4.466;2023-06-19T02:34:34;18.08;;;13.27;;
66272;SDS011;58450;52.150;4.466;2023-06-19T02:37:02;19.02;;;15.38;;
66272;SDS011;58450;52.150;4.466;2023-06-19T02:39:30;21.65;;;17.17;;
66272;SDS011;58450;52.150;4.466;2023-06-19T02:41:57;24.10;;;17.52;;
66272;SDS011;58450;52.150;4.466;2023-06-19T02:44:25;21.63;;;17.27;;
66272;SDS011;58450;52.150;4.466;2023-06-19T02:46:54;24.83;;;19.95;;
66272;SDS011;58450;52.150;4.466;2023-06-19T02:49:22;28.33;;;22.95;;
66272;SDS011;58450;52.150;4.466;2023-06-19T02:51:49;30.00;;;23.98;;
66272;SDS011;58450;52.150;4.466;2023-06-19T02:54:17;36.47;;;27.92;;
66272;SDS011;58450;52.150;4.466;2023-06-19T02:56:44;35.45;;;27.85;;
66272;SDS011;58450;52.150;4.466;2023-06-19T02:59:12;35.38;;;27.40;;
66272;SDS011;58450;52.150;4.466;2023-06-19T03:01:39;39.20;;;30.70;;
66272;SDS011;58450;52.150;4.466;2023-06-19T03:04:08;35.35;;;27.58;;
66272;SDS011;58450;52.150;4.466;2023-06-19T03:06:36;37.40;;;27.42;;
66272;SDS011;58450;52.150;4.466;2023-06-19T03:09:05;36.75;;;28.10;;
66272;SDS011;58450;52.150;4.466;2023-06-19T03:11:37;39.65;;;29.70;;
66272;SDS011;58450;52.150;4.466;2023-06-19T03:14:06;41.20;;;31.35;;
66272;SDS011;58450;52.150;4.466;2023-06-19T03:16:34;36.08;;;29.60;;
66272;SDS011;58450;52.150;4.466;2023-06-19T03:19:02;42.78;;;30.77;;
66272;SDS011;58450;52.150;4.466;2023-06-19T03:21:31;40.50;;;30.17;;
66272;SDS011;58450;52.150;4.466;2023-06-19T03:23:58;38.05;;;29.40;;
66272;SDS011;58450;52.150;4.466;2023-06-19T03:26:26;41.45;;;31.10;;
66272;SDS011;58450;52.150;4.466;2023-06-19T03:28:53;33.67;;;25.25;;
66272;SDS011;58450;52.150;4.466;2023-06-19T03:31:21;30.98;;;23.05;;
66272;SDS011;58450;52.150;4.466;2023-06-19T03:33:48;30.63;;;23.10;;
66272;SDS011;58450;52.150;4.466;2023-06-19T03:36:16;30.27;;;22.67;;
66272;SDS011;58450;52.150;4.466;2023-06-19T03:38:45;31.05;;;23.27;;
66272;SDS011;58450;52.150;4.466;2023-06-19T03:41:12;37.65;;;26.58;;
66272;SDS011;58450;52.150;4.466;2023-06-19T03:43:39;46.45;;;31.00;;
66272;SDS011;58450;52.150;4.466;2023-06-19T03:46:07;48.67;;;32.53;;
66272;SDS011;58450;52.150;4.466;2023-06-19T03:48:34;60.95;;;38.47;;
66272;SDS011;58450;52.150;4.466;2023-06-19T03:51:02;56.50;;;36.45;;
66272;SDS011;58450;52.150;4.466;2023-06-19T03:53:30;61.55;;;37.15;;
66272;SDS011;58450;52.150;4.466;2023-06-19T03:55:58;54.42;;;34.88;;
66272;SDS011;58450;52.150;4.466;2023-06-19T03:58:26;51.90;;;34.35;;
66272;SDS011;58450;52.150;4.466;2023-06-19T04:00:54;51.65;;;33.15;;
66272;SDS011;58450;52.150;4.466;2023-06-19T04:03:21;49.60;;;30.23;;
66272;SDS011;58450;52.150;4.466;2023-06-19T04:05:49;48.35;;;29.48;;
66272;SDS011;58450;52.150;4.466;2023-06-19T04:08:16;41.03;;;26.70;;
66272;SDS011;58450;52.150;4.466;2023-06-19T04:10:44;38.05;;;24.10;;
66272;SDS011;58450;52.150;4.466;2023-06-19T04:13:13;35.70;;;21.98;;
66272;SDS011;58450;52.150;4.466;2023-06-19T04:15:41;29.73;;;20.35;;
66272;SDS011;58450;52.150;4.466;2023-06-19T04:18:10;29.75;;;19.67;;
66272;SDS011;58450;52.150;4.466;2023-06-19T04:20:37;29.98;;;20.48;;
66272;SDS011;58450;52.150;4.466;2023-06-19T04:23:06;29.35;;;19.45;;
66272;SDS011;58450;52.150;4.466;2023-06-19T04:25:34;27.42;;;18.75;;
66272;SDS011;58450;52.150;4.466;2023-06-19T04:28:01;25.80;;;17.52;;
66272;SDS011;58450;52.150;4.466;2023-06-19T04:30:31;25.52;;;18.13;;
66272;SDS011;58450;52.150;4.466;2023-06-19T04:32:59;23.95;;;17.50;;
66272;SDS011;58450;52.150;4.466;2023-06-19T04:35:26;25.25;;;16.83;;
66272;SDS011;58450;52.150;4.466;2023-06-19T04:37:54;25.45;;;16.67;;
66272;SDS011;58450;52.150;4.466;2023-06-19T04:40:21;22.52;;;16.90;;
66272;SDS011;58450;52.150;4.466;2023-06-19T04:42:51;22.40;;;15.95;;
66272;SDS011;58450;52.150;4.466;2023-06-19T04:45:19;25.17;;;16.17;;
66272;SDS011;58450;52.150;4.466;2023-06-19T04:47:49;20.20;;;13.60;;
66272;SDS011;58450;52.150;4.466;2023-06-19T04:50:17;24.65;;;15.50;;
66272;SDS011;58450;52.150;4.466;2023-06-19T04:52:44;21.70;;;14.32;;
66272;SDS011;58450;52.150;4.466;2023-06-19T04:55:13;20.15;;;14.25;;
66272;SDS011;58450;52.150;4.466;2023-06-19T04:57:40;21.00;;;13.30;;
66272;SDS011;58450;52.150;4.466;2023-06-19T05:00:08;22.90;;;13.52;;
66272;SDS011;58450;52.150;4.466;2023-06-19T05:02:37;24.60;;;14.20;;
66272;SDS011;58450;52.150;4.466;2023-06-19T05:05:06;22.23;;;13.27;;
66272;SDS011;58450;52.150;4.466;2023-06-19T05:07:35;19.63;;;12.60;;
66272;SDS011;58450;52.150;4.466;2023-06-19T05:10:02;18.88;;;12.35;;
66272;SDS011;58450;52.150;4.466;2023-06-19T05:12:30;21.35;;;12.60;;
66272;SDS011;58450;52.150;4.466;2023-06-19T05:14:57;20.25;;;12.88;;
66272;SDS011;58450;52.150;4.466;2023-06-19T05:17:25;20.67;;;13.05;;
66272;SDS011;58450;52.150;4.466;2023-06-19T05:19:52;22.23;;;14.85;;
66272;SDS011;58450;52.150;4.466;2023-06-19T05:22:21;21.73;;;13.85;;
66272;SDS011;58450;52.150;4.466;2023-06-19T05:24:49;19.98;;;14.60;;
66272;SDS011;58450;52.150;4.466;2023-06-19T05:27:17;24.38;;;15.73;;
66272;SDS011;58450;52.150;4.466;2023-06-19T05:29:45;20.70;;;14.60;;
66272;SDS011;58450;52.150;4.466;2023-06-19T05:32:12;21.27;;;14.85;;
66272;SDS011;58450;52.150;4.466;2023-06-19T05:34:40;21.88;;;14.45;;
66272;SDS011;58450;52.150;4.466;2023-06-19T05:37:07;25.10;;;17.50;;
66272;SDS011;58450;52.150;4.466;2023-06-19T05:39:36;24.65;;;16.50;;
66272;SDS011;58450;52.150;4.466;2023-06-19T05:42:04;25.80;;;16.98;;
66272;SDS011;58450;52.150;4.466;2023-06-19T05:44:32;26.45;;;18.20;;
66272;SDS011;58450;52.150;4.466;2023-06-19T05:47:01;26.50;;;18.25;;
66272;SDS011;58450;52.150;4.466;2023-06-19T05:49:28;23.15;;;15.90;;
66272;SDS011;58450;52.150;4.466;2023-06-19T05:51:56;23.88;;;16.05;;
66272;SDS011;58450;52.150;4.466;2023-06-19T05:54:24;24.95;;;17.15;;
66272;SDS011;58450;52.150;4.466;2023-06-19T05:56:53;25.95;;;17.95;;
66272;SDS011;58450;52.150;4.466;2023-06-19T06:02:41;32.00;;;20.45;;
66272;SDS011;58450;52.150;4.466;2023-06-19T06:05:09;29.50;;;19.92;;
66272;SDS011;58450;52.150;4.466;2023-06-19T06:07:36;30.67;;;20.35;;
66272;SDS011;58450;52.150;4.466;2023-06-19T06:10:04;28.02;;;19.75;;
66272;SDS011;58450;52.150;4.466;2023-06-19T06:12:34;27.17;;;19.75;;
66272;SDS011;58450;52.150;4.466;2023-06-19T06:15:02;27.80;;;19.35;;
66272;SDS011;58450;52.150;4.466;2023-06-19T06:17:31;29.52;;;19.67;;
66272;SDS011;58450;52.150;4.466;2023-06-19T06:19:59;28.55;;;19.35;;
66272;SDS011;58450;52.150;4.466;2023-06-19T06:22:26;28.00;;;19.20;;
66272;SDS011;58450;52.150;4.466;2023-06-19T06:24:53;27.40;;;18.73;;
66272;SDS011;58450;52.150;4.466;2023-06-19T06:27:21;26.92;;;18.52;;
66272;SDS011;58450;52.150;4.466;2023-06-19T06:29:50;26.65;;;19.05;;
66272;SDS011;58450;52.150;4.466;2023-06-19T06:32:18;26.67;;;17.77;;
66272;SDS011;58450;52.150;4.466;2023-06-19T06:34:45;23.27;;;17.52;;
66272;SDS011;58450;52.150;4.466;2023-06-19T06:37:13;25.15;;;17.00;;
66272;SDS011;58450;52.150;4.466;2023-06-19T06:39:42;25.23;;;18.45;;
66272;SDS011;58450;52.150;4.466;2023-06-19T06:42:09;28.25;;;18.00;;
66272;SDS011;58450;52.150;4.466;2023-06-19T06:44:37;21.75;;;15.93;;
66272;SDS011;58450;52.150;4.466;2023-06-19T06:47:06;20.70;;;15.27;;
66272;SDS011;58450;52.150;4.466;2023-06-19T06:49:33;22.38;;;15.73;;
66272;SDS011;58450;52.150;4.466;2023-06-19T06:52:02;18.65;;;13.70;;
66272;SDS011;58450;52.150;4.466;2023-06-19T06:54:30;18.20;;;13.55;;
66272;SDS011;58450;52.150;4.466;2023-06-19T06:56:58;18.95;;;12.73;;
66272;SDS011;58450;52.150;4.466;2023-06-19T06:59:26;16.85;;;12.13;;
66272;SDS011;58450;52.150;4.466;2023-06-19T07:01:54;18.77;;;12.07;;
66272;SDS011;58450;52.150;4.466;2023-06-19T07:04:23;16.10;;;10.70;;
66272;SDS011;58450;52.150;4.466;2023-06-19T07:06:51;14.82;;;10.45;;
66272;SDS011;58450;52.150;4.466;2023-06-19T07:09:18;16.00;;;11.57;;
66272;SDS011;58450;52.150;4.466;2023-06-19T07:11:47;15.68;;;10.35;;
66272;SDS011;58450;52.150;4.466;2023-06-19T07:14:14;16.58;;;10.90;;
66272;SDS011;58450;52.150;4.466;2023-06-19T07:16:43;15.57;;;10.35;;
66272;SDS011;58450;52.150;4.466;2023-06-19T07:19:11;15.82;;;10.57;;
66272;SDS011;58450;52.150;4.466;2023-06-19T07:21:40;18.50;;;10.60;;
66272;SDS011;58450;52.150;4.466;2023-06-19T07:24:08;15.93;;;11.88;;
66272;SDS011;58450;52.150;4.466;2023-06-19T07:26:36;17.02;;;10.93;;
66272;SDS011;58450;52.150;4.466;2023-06-19T07:29:03;18.83;;;10.48;;
66272;SDS011;58450;52.150;4.466;2023-06-19T07:31:31;14.98;;;10.35;;
66272;SDS011;58450;52.150;4.466;2023-06-19T07:33:58;13.18;;;9.82;;
66272;SDS011;58450;52.150;4.466;2023-06-19T07:36:26;15.27;;;10.18;;
66272;SDS011;58450;52.150;4.466;2023-06-19T07:38:55;14.15;;;10.40;;
66272;SDS011;58450;52.150;4.466;2023-06-19T07:41:22;14.85;;;10.52;;
66272;SDS011;58450;52.150;4.466;2023-06-19T07:43:50;16.42;;;10.15;;
66272;SDS011;58450;52.150;4.466;2023-06-19T07:46:17;15.63;;;10.57;;
66272;SDS011;58450;52.150;4.466;2023-06-19T07:48:45;14.30;;;9.95;;
66272;SDS011;58450;52.150;4.466;2023-06-19T07:51:12;15.23;;;9.82;;
66272;SDS011;58450;52.150;4.466;2023-06-19T07:53:40;15.15;;;10.40;;
66272;SDS011;58450;52.150;4.466;2023-06-19T07:56:10;18.38;;;10.32;;
66272;SDS011;58450;52.150;4.466;2023-06-19T07:58:37;17.42;;;11.77;;
66272;SDS011;58450;52.150;4.466;2023-06-19T08:01:05;16.02;;;11.05;;
66272;SDS011;58450;52.150;4.466;2023-06-19T08:03:32;14.27;;;10.73;;
66272;SDS011;58450;52.150;4.466;2023-06-19T08:06:00;16.20;;;10.98;;
66272;SDS011;58450;52.150;4.466;2023-06-19T08:08:27;16.17;;;11.10;;
66272;SDS011;58450;52.150;4.466;2023-06-19T08:10:55;17.60;;;11.43;;
66272;SDS011;58450;52.150;4.466;2023-06-19T08:13:24;17.20;;;11.68;;
66272;SDS011;58450;52.150;4.466;2023-06-19T08:15:51;18.52;;;11.15;;
66272;SDS011;58450;52.150;4.466;2023-06-19T08:18:19;16.67;;;10.80;;
66272;SDS011;58450;52.150;4.466;2023-06-19T08:20:46;16.75;;;11.00;;
66272;SDS011;58450;52.150;4.466;2023-06-19T08:23:14;16.63;;;11.07;;
66272;SDS011;58450;52.150;4.466;2023-06-19T08:25:41;16.65;;;10.73;;
66272;SDS011;58450;52.150;4.466;2023-06-19T08:28:09;17.75;;;11.18;;
66272;SDS011;58450;52.150;4.466;2023-06-19T08:30:38;14.48;;;9.77;;
66272;SDS011;58450;52.150;4.466;2023-06-19T08:33:05;18.55;;;9.77;;
66272;SDS011;58450;52.150;4.466;2023-06-19T08:35:33;14.50;;;9.40;;
66272;SDS011;58450;52.150;4.466;2023-06-19T08:38:00;10.98;;;8.25;;
66272;SDS011;58450;52.150;4.466;2023-06-19T08:40:27;13.20;;;7.57;;
66272;SDS011;58450;52.150;4.466;2023-06-19T08:42:55;14.95;;;8.95;;
66272;SDS011;58450;52.150;4.466;2023-06-19T08:45:23;15.27;;;9.15;;
66272;SDS011;58450;52.150;4.466;2023-06-19T08:47:58;14.98;;;9.88;;
66272;SDS011;58450;52.150;4.466;2023-06-19T08:50:26;15.32;;;9.27;;
66272;SDS011;58450;52.150;4.466;2023-06-19T08:52:54;11.27;;;8.43;;
66272;SDS011;58450;52.150;4.466;2023-06-19T08:55:22;16.80;;;8.82;;
66272;SDS011;58450;52.150;4.466;2023-06-19T08:57:50;14.23;;;8.57;;
66272;SDS011;58450;52.150;4.466;2023-06-19T09:00:22;15.60;;;9.75;;
66272;SDS011;58450;52.150;4.466;2023-06-19T09:02:52;14.82;;;9.55;;
66272;SDS011;58450;52.150;4.466;2023-06-19T09:05:28;15.45;;;9.23;;
66272;SDS011;58450;52.150;4.466;2023-06-19T09:07:57;14.68;;;9.30;;
66272;SDS011;58450;52.150;4.466;2023-06-19T09:10:27;14.98;;;9.02;;
66272;SDS011;58450;52.150;4.466;2023-06-19T09:12:58;16.23;;;9.65;;
66272;SDS011;58450;52.150;4.466;2023-06-19T09:15:27;13.55;;;8.55;;
66272;SDS011;58450;52.150;4.466;2023-06-19T09:18:02;13.70;;;8.60;;
66272;SDS011;58450;52.150;4.466;2023-06-19T09:20:31;13.18;;;9.40;;
66272;SDS011;58450;52.150;4.466;2023-06-19T09:22:59;15.15;;;9.02;;
66272;SDS011;58450;52.150;4.466;2023-06-19T09:25:27;14.27;;;8.55;;
66272;SDS011;58450;52.150;4.466;2023-06-19T09:27:55;14.93;;;8.68;;
66272;SDS011;58450;52.150;4.466;2023-06-19T09:30:23;13.35;;;8.38;;
66272;SDS011;58450;52.150;4.466;2023-06-19T09:32:50;11.95;;;8.18;;
66272;SDS011;58450;52.150;4.466;2023-06-19T09:35:19;11.27;;;7.68;;
66272;SDS011;58450;52.150;4.466;2023-06-19T09:37:47;11.27;;;8.00;;
66272;SDS011;58450;52.150;4.466;2023-06-19T09:40:18;11.13;;;8.57;;
66272;SDS011;58450;52.150;4.466;2023-06-19T09:42:46;12.95;;;9.00;;
66272;SDS011;58450;52.150;4.466;2023-06-19T09:45:21;10.90;;;7.70;;
66272;SDS011;58450;52.150;4.466;2023-06-19T09:47:53;12.38;;;7.68;;
66272;SDS011;58450;52.150;4.466;2023-06-19T09:50:22;9.85;;;6.53;;
66272;SDS011;58450;52.150;4.466;2023-06-19T09:52:54;12.27;;;7.53;;
66272;SDS011;58450;52.150;4.466;2023-06-19T09:55:23;9.85;;;6.90;;
66272;SDS011;58450;52.150;4.466;2023-06-19T09:57:54;8.90;;;6.03;;
66272;SDS011;58450;52.150;4.466;2023-06-19T10:00:22;7.75;;;5.80;;
66272;SDS011;58450;52.150;4.466;2023-06-19T10:02:56;9.75;;;5.75;;
66272;SDS011;58450;52.150;4.466;2023-06-19T10:05:30;7.97;;;5.72;;
66272;SDS011;58450;52.150;4.466;2023-06-19T10:07:58;12.32;;;6.75;;
66272;SDS011;58450;52.150;4.466;2023-06-19T10:10:27;8.90;;;5.85;;
66272;SDS011;58450;52.150;4.466;2023-06-19T10:12:55;10.38;;;6.50;;
66272;SDS011;58450;52.150;4.466;2023-06-19T10:15:26;8.20;;;5.45;;
66272;SDS011;58450;52.150;4.466;2023-06-19T10:17:59;9.07;;;5.10;;
66272;SDS011;58450;52.150;4.466;2023-06-19T10:20:31;9.32;;;6.05;;
66272;SDS011;58450;52.150;4.466;2023-06-19T10:25:33;10.30;;;5.13;;
66272;SDS011;58450;52.150;4.466;2023-06-19T10:28:04;8.57;;;5.32;;
66272;SDS011;58450;52.150;4.466;2023-06-19T10:30:43;7.03;;;4.47;;
66272;SDS011;58450;52.150;4.466;2023-06-19T10:33:11;9.55;;;5.72;;
66272;SDS011;58450;52.150;4.466;2023-06-19T10:35:40;8.05;;;5.25;;
66272;SDS011;58450;52.150;4.466;2023-06-19T10:38:08;8.35;;;5.03;;
66272;SDS011;58450;52.150;4.466;2023-06-19T10:40:36;9.20;;;5.43;;
66272;SDS011;58450;52.150;4.466;2023-06-19T10:43:04;9.82;;;5.60;;
66272;SDS011;58450;52.150;4.466;2023-06-19T10:45:32;8.30;;;4.72;;
66272;SDS011;58450;52.150;4.466;2023-06-19T10:48:00;8.35;;;4.30;;
66272;SDS011;58450;52.150;4.466;2023-06-19T10:50:29;6.75;;;4.35;;
66272;SDS011;58450;52.150;4.466;2023-06-19T10:53:03;7.47;;;4.60;;
66272;SDS011;58450;52.150;4.466;2023-06-19T10:55:31;8.27;;;4.90;;
66272;SDS011;58450;52.150;4.466;2023-06-19T10:57:58;6.78;;;4.47;;
66272;SDS011;58450;52.150;4.466;2023-06-19T11:00:26;7.78;;;4.80;;
66272;SDS011;58450;52.150;4.466;2023-06-19T11:02:56;9.68;;;4.75;;
66272;SDS011;58450;52.150;4.466;2023-06-19T11:05:25;6.32;;;4.45;;
66272;SDS011;58450;52.150;4.466;2023-06-19T11:07:54;7.25;;;4.40;;
66272;SDS011;58450;52.150;4.466;2023-06-19T11:10:25;7.07;;;4.28;;
66272;SDS011;58450;52.150;4.466;2023-06-19T11:12:56;6.13;;;4.05;;
66272;SDS011;58450;52.150;4.466;2023-06-19T11:15:28;7.80;;;4.35;;
66272;SDS011;58450;52.150;4.466;2023-06-19T11:17:56;7.90;;;4.90;;
66272;SDS011;58450;52.150;4.466;2023-06-19T11:20:24;8.57;;;4.70;;
66272;SDS011;58450;52.150;4.466;2023-06-19T11:22:54;7.30;;;4.85;;
66272;SDS011;58450;52.150;4.466;2023-06-19T11:25:33;8.60;;;4.63;;
66272;SDS011;58450;52.150;4.466;2023-06-19T11:28:03;8.00;;;4.47;;
66272;SDS011;58450;52.150;4.466;2023-06-19T11:30:31;7.00;;;4.45;;
66272;SDS011;58450;52.150;4.466;2023-06-19T11:33:01;6.53;;;3.88;;
66272;SDS011;58450;52.150;4.466;2023-06-19T11:35:32;6.38;;;3.90;;
66272;SDS011;58450;52.150;4.466;2023-06-19T11:40:39;5.75;;;3.80;;
66272;SDS011;58450;52.150;4.466;2023-06-19T11:43:07;9.32;;;4.38;;
66272;SDS011;58450;52.150;4.466;2023-06-19T11:45:44;9.43;;;4.05;;
66272;SDS011;58450;52.150;4.466;2023-06-19T11:48:14;8.68;;;4.50;;
66272;SDS011;58450;52.150;4.466;2023-06-19T11:50:49;7.38;;;4.20;;
66272;SDS011;58450;52.150;4.466;2023-06-19T11:53:18;7.93;;;5.00;;
66272;SDS011;58450;52.150;4.466;2023-06-19T11:55:47;8.13;;;5.20;;
66272;SDS011;58450;52.150;4.466;2023-06-19T11:58:15;7.72;;;4.85;;
66272;SDS011;58450;52.150;4.466;2023-06-19T12:00:45;8.90;;;5.68;;
66272;SDS011;58450;52.150;4.466;2023-06-19T12:03:13;8.43;;;5.25;;
66272;SDS011;58450;52.150;4.466;2023-06-19T12:05:40;7.85;;;5.22;;
66272;SDS011;58450;52.150;4.466;2023-06-19T12:08:08;9.93;;;5.70;;
66272;SDS011;58450;52.150;4.466;2023-06-19T12:10:35;9.15;;;5.03;;
66272;SDS011;58450;52.150;4.466;2023-06-19T12:13:04;8.82;;;6.25;;
66272;SDS011;58450;52.150;4.466;2023-06-19T12:15:31;11.10;;;6.60;;
66272;SDS011;58450;52.150;4.466;2023-06-19T12:17:59;11.32;;;7.03;;
66272;SDS011;58450;52.150;4.466;2023-06-19T12:20:26;9.43;;;6.53;;
66272;SDS011;58450;52.150;4.466;2023-06-19T12:22:54;10.05;;;6.68;;
66272;SDS011;58450;52.150;4.466;2023-06-19T12:25:22;11.50;;;7.00;;
66272;SDS011;58450;52.150;4.466;2023-06-19T12:27:49;10.88;;;7.20;;
66272;SDS011;58450;52.150;4.466;2023-06-19T12:30:18;9.88;;;6.97;;
66272;SDS011;58450;52.150;4.466;2023-06-19T12:32:46;14.20;;;7.72;;
66272;SDS011;58450;52.150;4.466;2023-06-19T12:35:15;12.90;;;7.70;;
66272;SDS011;58450;52.150;4.466;2023-06-19T12:37:43;12.40;;;7.47;;
66272;SDS011;58450;52.150;4.466;2023-06-19T12:40:11;11.57;;;7.10;;
66272;SDS011;58450;52.150;4.466;2023-06-19T12:42:38;9.95;;;6.50;;
66272;SDS011;58450;52.150;4.466;2023-06-19T12:45:06;8.75;;;5.55;;
66272;SDS011;58450;52.150;4.466;2023-06-19T12:47:36;9.32;;;5.68;;
66272;SDS011;58450;52.150;4.466;2023-06-19T12:50:04;8.88;;;5.95;;
66272;SDS011;58450;52.150;4.466;2023-06-19T12:52:33;10.40;;;5.95;;
66272;SDS011;58450;52.150;4.466;2023-06-19T12:55:00;10.73;;;6.03;;
66272;SDS011;58450;52.150;4.466;2023-06-19T12:57:28;9.80;;;5.57;;
66272;SDS011;58450;52.150;4.466;2023-06-19T12:59:55;10.65;;;5.30;;
66272;SDS011;58450;52.150;4.466;2023-06-19T13:02:23;11.98;;;5.97;;
66272;SDS011;58450;52.150;4.466;2023-06-19T13:04:51;9.27;;;5.90;;
66272;SDS011;58450;52.150;4.466;2023-06-19T13:07:19;9.57;;;4.93;;
66272;SDS011;58450;52.150;4.466;2023-06-19T13:09:46;9.82;;;5.30;;
66272;SDS011;58450;52.150;4.466;2023-06-19T13:12:14;8.38;;;4.82;;
66272;SDS011;58450;52.150;4.466;2023-06-19T13:14:41;6.95;;;4.18;;
66272;SDS011;58450;52.150;4.466;2023-06-19T13:17:09;9.88;;;4.47;;
66272;SDS011;58450;52.150;4.466;2023-06-19T13:19:36;8.15;;;4.47;;
66272;SDS011;58450;52.150;4.466;2023-06-19T13:22:05;6.80;;;4.00;;
66272;SDS011;58450;52.150;4.466;2023-06-19T13:24:33;7.55;;;3.80;;
66272;SDS011;58450;52.150;4.466;2023-06-19T13:27:00;7.10;;;3.95;;
66272;SDS011;58450;52.150;4.466;2023-06-19T13:29:28;6.13;;;3.70;;
66272;SDS011;58450;52.150;4.466;2023-06-19T13:31:55;7.68;;;4.00;;
66272;SDS011;58450;52.150;4.466;2023-06-19T13:34:23;8.27;;;4.22;;
66272;SDS011;58450;52.150;4.466;2023-06-19T13:36:50;7.30;;;4.10;;
66272;SDS011;58450;52.150;4.466;2023-06-19T13:39:19;7.53;;;3.95;;
66272;SDS011;58450;52.150;4.466;2023-06-19T13:41:46;8.20;;;4.25;;
66272;SDS011;58450;52.150;4.466;2023-06-19T13:44:14;6.60;;;4.20;;
66272;SDS011;58450;52.150;4.466;2023-06-19T13:46:42;7.22;;;3.78;;
66272;SDS011;58450;52.150;4.466;2023-06-19T13:49:09;5.72;;;3.47;;
66272;SDS011;58450;52.150;4.466;2023-06-19T13:51:39;6.88;;;3.50;;
66272;SDS011;58450;52.150;4.466;2023-06-19T13:54:07;7.88;;;4.00;;
66272;SDS011;58450;52.150;4.466;2023-06-19T13:56:36;7.20;;;3.95;;
66272;SDS011;58450;52.150;4.466;2023-06-19T13:59:03;6.95;;;4.15;;
66272;SDS011;58450;52.150;4.466;2023-06-19T14:01:31;6.40;;;3.80;;
66272;SDS011;58450;52.150;4.466;2023-06-19T14:03:59;8.32;;;4.32;;
66272;SDS011;58450;52.150;4.466;2023-06-19T14:06:26;7.68;;;4.18;;
66272;SDS011;58450;52.150;4.466;2023-06-19T14:08:54;7.63;;;4.63;;
66272;SDS011;58450;52.150;4.466;2023-06-19T14:11:21;6.97;;;4.30;;
66272;SDS011;58450;52.150;4.466;2023-06-19T14:13:50;6.97;;;4.22;;
66272;SDS011;58450;52.150;4.466;2023-06-19T14:16:18;6.97;;;4.40;;
66272;SDS011;58450;52.150;4.466;2023-06-19T14:18:45;6.70;;;4.05;;
66272;SDS011;58450;52.150;4.466;2023-06-19T14:21:12;7.15;;;4.43;;
66272;SDS011;58450;52.150;4.466;2023-06-19T14:23:40;7.18;;;4.20;;
66272;SDS011;58450;52.150;4.466;2023-06-19T14:26:09;7.10;;;4.30;;
66272;SDS011;58450;52.150;4.466;2023-06-19T14:28:37;7.43;;;4.53;;
66272;SDS011;58450;52.150;4.466;2023-06-19T14:31:06;7.90;;;4.50;;
66272;SDS011;58450;52.150;4.466;2023-06-19T14:33:34;7.40;;;4.75;;
66272;SDS011;58450;52.150;4.466;2023-06-19T14:36:02;7.90;;;4.50;;
66272;SDS011;58450;52.150;4.466;2023-06-19T14:38:30;8.45;;;4.88;;
66272;SDS011;58450;52.150;4.466;2023-06-19T14:40:59;7.82;;;4.53;;
66272;SDS011;58450;52.150;4.466;2023-06-19T14:43:28;7.43;;;4.30;;
66272;SDS011;58450;52.150;4.466;2023-06-19T14:45:56;9.27;;;4.45;;
66272;SDS011;58450;52.150;4.466;2023-06-19T14:48:24;8.60;;;4.45;;
66272;SDS011;58450;52.150;4.466;2023-06-19T14:50:52;8.38;;;4.20;;
66272;SDS011;58450;52.150;4.466;2023-06-19T14:53:20;6.65;;;3.92;;